Parkland Airport

CPL6 · Alberta, Canada

METAR history CPL6 · Parkland Airport

Below you see METARs of the last few days. Select a year to browse through older METARs, from the year 2007 onwards.

March 31, 2023

Time Code Weather Temp. Visibility Ceiling Wind METAR/SPECI
07:17
L
-5 °C 1¼ mi 200 ft 180° 180° 7 kt METAR CYEG 311317Z 18007KT 1 1/4SM -SN BR OVC002 M05/M05 A2961 RMK FG4ST4 SLP064
07:09
L
-5 °C 2¼ mi 300 ft 210° 210° 9 kt METAR CYEG 311309Z 21009KT 2 1/4SM -SN BR OVC003 M05/M05 A2961 RMK FG3ST5 SLP064
07:00
L
-5 °C 3 mi 300 ft 200° 200° 7 kt METAR CYEG 311300Z 20007KT 3SM -SN BR OVC003 M05/M05 A2961 RMK SC8 SLP064
06:29
L
-5 °C 4 mi 300 ft 180° 180° 8 kt METAR CYEG 311229Z 18008KT 4SM -SN BR OVC003 M05/M05 A2961 RMK SC8 SLP063
06:06
L
-5 °C 5 mi 400 ft 180° 180° 10 kt METAR CYEG 311206Z 18010KT 5SM -SN BR OVC004 M05/M06 A2961 RMK SC8 SLP063
06:00
I
-5 °C 5 mi 500 ft 180° 180° 8 kt METAR CYEG 311200Z 18008KT 5SM -SN BR OVC005 M05/M06 A2961 RMK SC8 SLP064
05:00
I
-6 °C 20 mi 500 ft 160° 160° 9 kt METAR CYEG 311100Z 16009KT 20SM -SN OVC005 M06/M08 A2961 RMK ST8 SLP063
04:41
I
-6 °C 20 mi 600 ft 160° 160° 9 kt METAR CYEG 311041Z 16009KT 20SM -SN BKN006 M06/M08 A2961 RMK ST6 SLP065
04:00
V
-6 °C 20 mi - 150° 150° 10 kt METAR CYEG 311000Z 15010KT 20SM FEW070 M06/M08 A2962 RMK AC1 AC TR SLP066
03:00
V
-7 °C 20 mi - 140° 140° 6 kt METAR CYEG 310900Z 14006KT 20SM SKC M07/M09 A2963 RMK SLP073
02:00
V
-5 °C 20 mi - 140° 140° 7 kt METAR CYEG 310800Z 14007KT 20SM SKC M05/M08 A2964 RMK SLP075
01:00
V
-5 °C 20 mi - 140° 140° 13 kt METAR CYEG 310700Z 14013KT 20SM FEW250 M05/M07 A2963 RMK CI1 CI TR SLP073
00:00
V
-4 °C 20 mi - 140° 140° 11 kt METAR CYEG 310600Z 14011KT 20SM FEW250 M04/M06 A2966 RMK CI1 CI TR SLP081

March 30, 2023

Time Code Weather Temp. Visibility Ceiling Wind METAR/SPECI
23:00
V
-4 °C 20 mi - 130° 130° 11 kt METAR CYEG 310500Z 13011KT 20SM FEW250 M04/M05 A2967 RMK CI1 SLP086
22:00
V
-3 °C 20 mi - 130° 130° 12 kt METAR CYEG 310400Z 13012KT 20SM FEW250 M03/M05 A2968 RMK CI1 CI TR SLP088
21:00
V
-2 °C 15 mi - 130° 130° 11 kt METAR CYEG 310300Z 13011KT 15SM FEW250 M02/M04 A2968 RMK CI1 CI TR SLP089
20:00
V
-1 °C 20 mi - 130° 130° 13 kt METAR CYEG 310200Z 13013KT 20SM SCT250 M01/M04 A2967 RMK CI3 SLP085
19:00
V
0 °C 20 mi - 130° 130° 17 - 23 kt METAR CYEG 310100Z 13017G23KT 20SM SCT250 M00/M03 A2969 RMK CI4 SLP089
18:00
V
0 °C 20 mi 25,000 ft 120° 120° 19 kt METAR CYEG 310000Z 12019KT 20SM FEW019 BKN250 00/M03 A2970 RMK CU2CI3 SLP093
17:00
V
1 °C 20 mi 25,000 ft 110° 110° 18 kt METAR CYEG 302300Z 11018KT 20SM SCT019 BKN250 01/M03 A2971 RMK CU3CI4 SLP096
16:00
M
1 °C 20 mi 1,900 ft 130° 130° 14 - 20 kt METAR CYEG 302200Z 13014G20KT 20SM BKN019 BKN250 01/M02 A2973 RMK CU5CI2 SLP101
15:00
V
1 °C 20 mi 25,000 ft 140° 140° 12 kt METAR CYEG 302100Z 14012KT 20SM SCT019 BKN250 01/M03 A2974 RMK SC3CI3 SLP106
14:00
V
0 °C 20 mi 25,000 ft 140° 140° 10 kt METAR CYEG 302000Z 14010KT 20SM SCT015 BKN250 00/M04 A2976 RMK SC3CI3 SLP113
13:43
V
0 °C 20 mi 25,000 ft 130° 130° 11 kt METAR CYEG 301943Z 13011KT 20SM SCT015 BKN250 M00/M04 A2976 RMK SC4CI2 SLP114
13:00
M
-1 °C 20 mi 1,300 ft 130° 130° 10 - 16 kt METAR CYEG 301900Z 13010G16KT 20SM BKN013 BKN250 M01/M03 A2979 RMK SC7CI1 CI TR SLP121
12:00
M
-2 °C 20 mi 1,000 ft 140° 140° 8 kt METAR CYEG 301800Z 14008KT 20SM OVC010 M02/M04 A2980 RMK SC8 SLP128
11:00
M
-2 °C 20 mi 1,200 ft 130° 130° 9 kt METAR CYEG 301700Z 13009KT 20SM OVC012 M02/M04 A2981 RMK SC8 SLP130
10:49
M
-2 °C 20 mi 1,000 ft 140° 140° 7 kt SPECI CYEG 301649Z 14007KT 20SM OVC010 M02/M04 A2981 RMK SC8 SLP131
10:00
I
-3 °C 20 mi 700 ft 160° 160° 8 kt METAR CYEG 301600Z 16008KT 20SM OVC007 M03/M04 A2982 RMK SC8 SLP135
09:00
I
-3 °C 20 mi 800 ft 160° 160° 8 kt METAR CYEG 301500Z 16008KT 20SM OVC008 M03/M04 A2982 RMK SC8 SLP135
08:37
I
-3 °C 20 mi 900 ft 130° 130° 11 kt METAR CYEG 301437Z 13011KT 20SM OVC009 M03/M04 A2982 RMK SC8 SLP135
08:00
M
-3 °C 20 mi 1,000 ft 130° 130° 9 kt METAR CYEG 301400Z 13009KT 20SM OVC010 M03/M05 A2984 RMK SC8 SLP139
07:26
M
-3 °C 20 mi 1,000 ft 100° 100° 8 kt METAR CYEG 301326Z 10008KT 20SM BKN010 OVC036 M03/M05 A2983 RMK SC6SC2 SLP137
07:00
V
-3 °C 20 mi - 090° 090° 8 kt METAR CYEG 301300Z 09008KT 20SM -SN FEW012 SCT036 M03/M05 A2983 RMK SC1SC4 SC TR SLP137
06:00
M
-3 °C 20 mi 2,000 ft 080° 080° 9 kt METAR CYEG 301200Z 08009KT 20SM -SN FEW013 OVC020 M03/M05 A2984 RMK SC2SC6 SLP139
05:00
M
-2 °C 20 mi 2,000 ft 080° 080° 8 kt METAR CYEG 301100Z 08008KT 20SM -SN FEW014 OVC020 M02/M04 A2985 RMK SC1SC7 SLP141
04:16
M
-2 °C 20 mi 1,900 ft 090° 090° 8 kt METAR CYEG 301016Z 09008KT 20SM -SN OVC019 M02/M04 A2986 RMK SC8 SLP143
04:00
M
-2 °C 20 mi 1,100 ft 090° 090° 7 kt METAR CYEG 301000Z 09007KT 20SM -SN BKN011 OVC016 M02/M03 A2986 RMK SC5SC3 SLP144
03:10
M
-2 °C 20 mi 1,100 ft 070° 070° 4 kt METAR CYEG 300910Z 07004KT 20SM -SN BKN011 BKN120 M02/M03 A2987 RMK SC7AC1 AC TR SLP146
03:00
V
-2 °C 15 mi 12,000 ft 070° 070° 5 kt METAR CYEG 300900Z 07005KT 15SM -SN SCT012 BKN120 M02/M03 A2987 RMK SC4AC3 SLP147
02:00
V
-2 °C 10 mi 5,800 ft 050° 050° 4 kt METAR CYEG 300800Z 05004KT 10SM -SN FEW012 OVC058 M02/M02 A2988 RMK SC1SC7 SLP151
01:41
V
-1 °C 6 mi 5,500 ft 030° 030° 5 kt METAR CYEG 300741Z 03005KT 6SM -SN FEW012 OVC055 M01/M02 A2988 RMK SC1SC8 SC TR SLP151
01:15
M
-1 °C 20 mi 1,300 ft 050° 050° 7 kt METAR CYEG 300715Z 05007KT 20SM -SN BKN013 OVC034 M01/M03 A2988 RMK SC7SC1 SLP152
01:00
V
-1 °C 20 mi 3,400 ft 070° 070° 5 kt METAR CYEG 300700Z 07005KT 20SM BKN034 BKN067 OVC110 M01/M03 A2988 RMK SC5AC2AC1 SLP151
00:00
V
0 °C 20 mi 8,000 ft 060° 060° 7 kt METAR CYEG 300600Z 06007KT 20SM FEW040 OVC080 M00/M03 A2987 RMK SC1AC8 SC TR SLP149

March 29, 2023

Time Code Weather Temp. Visibility Ceiling Wind METAR/SPECI
23:00
V
-1 °C 20 mi 8,700 ft 030° 030° 6 kt METAR CYEG 300500Z 03006KT 20SM FEW042 BKN087 BKN250 M01/M02 A2986 RMK SC1AC6CI1 CI TR SLP147
22:00
V
0 °C 20 mi 10,000 ft 040° 040° 9 kt METAR CYEG 300400Z 04009KT 20SM BKN100 BKN250 00/M04 A2985 RMK AC7CI1 CI TR SLP145
21:00
V
1 °C 20 mi 15,000 ft 050° 050° 11 kt METAR CYEG 300300Z 05011KT 20SM FEW090 BKN150 BKN250 01/M05 A2983 RMK AC1AC6CI1 CI TR SLP141
20:00
V
2 °C 20 mi 9,300 ft 050° 050° 10 kt METAR CYEG 300200Z 05010KT 20SM BKN093 BKN140 OVC250 02/M06 A2983 RMK AC5AS2CI1 SLP144
19:00
V
3 °C 20 mi 23,000 ft 030° 030° 7 kt METAR CYEG 300100Z 03007KT 20SM FEW070 SCT080 OVC230 03/M06 A2984 RMK AC1AS3CS4 SLP146
18:00
V
4 °C 20 mi 23,000 ft 250° 250° 4 kt METAR CYEG 300000Z 25004KT 20SM SCT080 OVC230 04/M05 A2982 RMK AS4CS4 SLP138
17:00
V
4 °C 20 mi 24,000 ft 210° 210° 5 kt METAR CYEG 292300Z 21005KT 20SM SCT120 OVC240 04/M07 A2982 RMK AS4CS4 SLP136
16:00
V
4 °C 20 mi 25,000 ft 180° 180° 6 kt METAR CYEG 292200Z 18006KT 20SM FEW140 BKN250 04/M07 A2982 RMK AS2CS5 CONTRAILS SLP136
15:00
V
5 °C 20 mi 25,000 ft 190° 190° 4 kt METAR CYEG 292100Z 19004KT 20SM FEW085 BKN250 05/M09 A2983 RMK AC1CS7 AC TR CONTRAILS SLP139
14:00
V
4 °C 20 mi 25,000 ft 220° 220° 4 kt METAR CYEG 292000Z 22004KT 20SM FEW085 FEW150 BKN250 04/M07 A2985 RMK AC1AC1CS7 AC TR AC TR CONTRAILS SLP144
13:00
V
3 °C 20 mi 25,000 ft 220° 220° 4 kt METAR CYEG 291900Z 22004KT 180V270 20SM FEW085 BKN250 03/M09 A2986 RMK AC2CI5 CONTRAILS SLP148
12:00
V
1 °C 20 mi 25,000 ft 290° 290° 3 kt METAR CYEG 291800Z 29003KT 240V310 20SM SCT085 BKN250 01/M09 A2987 RMK AC3CI4 CONTRAILS SLP152
11:00
V
-1 °C 20 mi 25,000 ft 230° 230° 4 kt METAR CYEG 291700Z 23004KT 20SM FEW078 SCT170 BKN250 M01/M09 A2988 RMK AC1AC2CI4 CONTRAILS SLP157
10:00
V
-4 °C 20 mi 25,000 ft 220° 220° 3 kt METAR CYEG 291600Z 22003KT 20SM FEW078 BKN250 M04/M09 A2988 RMK AC1CI6 AC TR CONTRAILS SLP161
09:00
V
-7 °C 20 mi 25,000 ft 200° 200° 5 kt METAR CYEG 291500Z 20005KT 20SM FEW080 BKN250 M07/M10 A2989 RMK AC1CI5 AC TR SLP167
08:00
V
-11 °C 20 mi 25,000 ft 170° 170° 5 kt METAR CYEG 291400Z 17005KT 20SM FEW080 BKN250 M11/M13 A2990 RMK AC1CI5 AC TR CONTRAILS SLP174
07:00
V
-11 °C 20 mi 25,000 ft 170° 170° 3 kt METAR CYEG 291300Z 17003KT 20SM FEW080 BKN250 M11/M13 A2991 RMK AC1CI5 AC TR SLP173
06:00
V
-10 °C 20 mi 24,000 ft 170° 170° 5 kt METAR CYEG 291200Z 17005KT 20SM BKN240 M10/M12 A2992 RMK CI6 SLP173
05:00
V
-9 °C 20 mi 24,000 ft 160° 160° 4 kt METAR CYEG 291100Z 16004KT 20SM BKN240 M09/M12 A2993 RMK CI7 SLP177
04:00
V
-8 °C 20 mi 25,000 ft 200° 200° 6 kt METAR CYEG 291000Z 20006KT 20SM BKN250 M08/M12 A2995 RMK CI6 SLP182
03:00
V
-8 °C 20 mi 25,000 ft 200° 200° 5 kt METAR CYEG 290900Z 20005KT 20SM BKN250 M08/M11 A2997 RMK CI5 SLP188
02:00
V
-7 °C 20 mi 25,000 ft 190° 190° 8 kt METAR CYEG 290800Z 19008KT 20SM BKN250 M07/M11 A2998 RMK CI5 SLP195

We and third parties follow your internet behavior on our website with cookies. If you continue, we assume you agree with our cookie policy.